Flight Track Log - Related Links

Times and Time Zones

All times are in EDT time to prevent confusion due to time zone crossing. See the EJA808 flight status page for this flight to view local times or setup timezone preferences in your user account.

Time Position Orientation Groundspeed Altitude Reporting Facility
EDT Latitude Longitude Course Direction KTS MPH feet Rate Location/Type
Sun 10:49:29 AM 41.2333 -72.8833 150° Southeast 186 214 1,600  Level New York TRACON
Sun 10:51:12 AM 41.1578 -72.8261 150° Southeast 226 260 6,300 2,798 Climbing Boston Center
Sun 10:52:12 AM 41.0869 -72.7789 153° Southeast 254 292 9,200 2,100 Climbing Boston Center
Sun 10:53:12 AM 41.0100 -72.7261 153° Southeast 285 328 10,500 900 Climbing Boston Center
Sun 10:54:12 AM 40.9164 -72.6653 154° Southeast 317 365 11,000 800 Climbing Boston Center
Sun 10:55:12 AM 40.8311 -72.6075 153° Southeast 333 383 12,100 1,950 Climbing Boston Center
Sun 10:56:12 AM 40.7394 -72.5717 164° South 343 395 14,900 2,850 Climbing Boston Center
Sun 10:57:12 AM 40.6747 -72.6564 225° Southwest 283 326 17,800 2,450 Climbing Boston Center
Sun 10:58:12 AM 40.6453 -72.7547 248° West 269 310 19,800 2,257 Climbing Boston Center
Sun 11:00:42 AM 40.5792 -73.0583 254° West 335 386 25,700 1,771 Climbing New York Center
Sun 11:01:42 AM 40.5453 -73.1881 251° West 355 409 26,000 149 Climbing New York Center
Sun 11:02:43 AM 40.5133 -73.3208 252° West 375 432 26,000  Level New York Center
Sun 11:03:40 AM 40.4769 -73.4586 251° West 388 447 26,000  Level New York Center
Sun 11:04:40 AM 40.4447 -73.5936 253° West 393 452 26,000  Level New York Center
Sun 11:05:40 AM 40.4081 -73.7283 250° West 393 452 26,000  Level New York Center
Sun 11:06:41 AM 40.3714 -73.8575 250° West 398 458 26,000  Level New York Center
Sun 11:07:41 AM 40.3364 -73.9922 251° West 398 458 26,000  Level New York Center
Sun 11:08:42 AM 40.3017 -74.1211 251° West 398 458 26,000  Level New York Center
Sun 11:09:41 AM 40.2664 -74.2553 251° West 398 458 26,000  Level New York Center
Sun 11:10:42 AM 40.2311 -74.3869 251° West 388 447 26,000  Level New York Center
Sun 11:11:42 AM 40.2039 -74.5242 255° West 388 447 26,000  Level New York Center
Sun 11:12:40 AM 40.1975 -74.6594 267° West 388 447 26,000  Level New York Center
Sun 11:13:41 AM 40.1908 -74.7978 266° West 383 441 26,000  Level New York Center
Sun 11:14:42 AM 40.1881 -74.9308 268° West 383 441 26,000  Level New York Center
Sun 11:15:42 AM 40.1833 -75.0689 267° West 383 441 26,000  Level New York Center
Sun 11:16:42 AM 40.1764 -75.1936 266° West 383 441 26,000  Level New York Center
Sun 11:17:40 AM 40.1714 -75.3292 267° West 383 441 26,000 -400 Level New York Center
Sun 11:18:42 AM 40.1664 -75.4592 267° West 377 434 25,200 -1,171 Descending New York Center
Sun 11:19:43 AM 40.1608 -75.5919 267° West 377 434 23,600 -1,729 Descending New York Center
Sun 11:20:40 AM 40.1514 -75.7217 265° West 367 422 21,800 -1,831 Descending New York Center
Sun 11:21:41 AM 40.1439 -75.8514 266° West 367 422 20,000 -893 Descending New York Center
Sun 11:22:41 AM 40.1339 -75.9811 264° West 367 422 20,000  Level New York Center
Sun 11:23:42 AM 40.0931 -76.1028 246° West 367 422 20,000 -298 Level New York Center
Sun 11:24:42 AM 40.0503 -76.2189 244° Southwest 367 422 19,400 -1,041 Descending New York Center
Sun 11:25:43 AM 40.0047 -76.3428 244° Southwest 361 415 17,900 -1,250 Descending New York Center
Sun 11:26:42 AM 39.9639 -76.4586 245° Southwest 353 406 16,900 -1,036 Descending New York Center
Sun 11:28:31 AM 39.9000 -76.6500 247° West 345 397 15,000 -651 Descending Potomac TRACON
Sun 11:29:37 AM 39.8500 -76.7833 244° Southwest 343 395 15,000  Level Potomac TRACON
Sun 11:30:32 AM 39.8167 -76.8833 247° West 341 392 15,000 -157 Level Potomac TRACON
Sun 11:31:32 AM 39.7667 -76.9833 237° Southwest 336 387 14,700 -750 Descending Potomac TRACON
Sun 11:32:32 AM 39.7333 -77.0833 247° West 331 381 13,500 -1,474 Descending Potomac TRACON
Sun 11:33:26 AM 39.7000 -77.2000 250° West 324 373 11,900 -1,737 Descending Potomac TRACON
Sun 11:34:26 AM 39.6500 -77.2833 232° Southwest 308 354 10,200 -1,000 Descending Potomac TRACON
Sun 11:35:26 AM 39.6000 -77.3500 226° Southwest 273 314 9,900 -1,050 Descending Potomac TRACON
Sun 11:36:26 AM 39.5333 -77.4000 210° Southwest 251 289 8,100 -1,750 Descending Potomac TRACON
Sun 11:37:26 AM 39.4667 -77.4333 201° Southwest 255 293 6,400 -1,700 Descending Potomac TRACON
Sun 11:38:26 AM 39.4000 -77.4333 180° South 241 277 4,700 -1,250 Descending Potomac TRACON
Sun 11:39:26 AM 39.3333 -77.4333 180° South 233 268 3,900 -850 Descending Potomac TRACON
Sun 11:40:26 AM 39.2833 -77.4333 180° South 222 255 3,000 -446 Descending Potomac TRACON
Sun 11:41:27 AM 39.2167 -77.4333 180° South 232 267 3,000  Level Potomac TRACON
Sun 11:42:27 AM 39.1500 -77.4333 180° South 237 273 3,000 -53 Level Potomac TRACON
Sun 11:43:21 AM 39.1000 -77.4333 180° South 227 261 2,900 -600 Descending Potomac TRACON
Sun 11:44:27 AM 39.0333 -77.4333 180° South 187 215 1,800 -905 Descending Potomac TRACON
Sun 11:45:27 AM 38.9833 -77.4333 180° South 133 153 1,000 -800 Descending Potomac TRACON
Sun 11:47:00 AM 38.9474 -77.4599 180° South  Level Estimated
Sun 11:54:00 AM 38.9474 -77.4599 349° North  Level Estimated
Sun 11:55:00 AM 38.9474 -77.4599 349° North  Level Estimated
Sun 11:56:00 AM 38.9474 -77.4599 349° North  Level Estimated
Sun 11:57:00 AM 38.9474 -77.4599 349° North  Level Estimated

Login

Don't have an account? Register now (free) for customized features, flight alerts, and more!